createdAt,value
2018-12-26T00:05:31.805Z,4.10
2018-12-26T00:10:27.821Z,4.16
2018-12-26T00:15:23.841Z,4.05
2018-12-26T00:20:19.885Z,4.00
2018-12-26T00:25:15.965Z,3.97
2018-12-26T00:30:12.017Z,3.86
2018-12-26T00:35:08.095Z,3.81
2018-12-26T00:40:04.117Z,3.74
2018-12-26T00:45:00.178Z,3.71
2018-12-26T00:49:56.155Z,3.65
2018-12-26T00:54:52.206Z,3.56
2018-12-26T00:59:48.290Z,3.51
2018-12-26T01:04:44.306Z,3.44
2018-12-26T01:09:40.328Z,3.38
2018-12-26T01:14:36.345Z,3.39
2018-12-26T01:19:32.365Z,3.33
2018-12-26T01:24:28.377Z,3.26
2018-12-26T01:29:24.363Z,3.28
2018-12-26T01:34:20.381Z,3.25
2018-12-26T01:39:16.398Z,3.22
2018-12-26T01:44:12.420Z,3.25
2018-12-26T01:49:08.429Z,3.22
2018-12-26T01:54:04.446Z,3.22
2018-12-26T01:59:00.483Z,3.12
2018-12-26T02:03:56.495Z,3.11
2018-12-26T02:08:52.505Z,3.13
2018-12-26T02:13:49.335Z,3.05
2018-12-26T02:18:45.445Z,3.01
2018-12-26T02:23:41.457Z,2.99
2018-12-26T02:28:38.177Z,2.99
2018-12-26T02:33:34.198Z,3.12
2018-12-26T02:38:30.217Z,3.12
2018-12-26T02:43:26.324Z,2.94
2018-12-26T02:48:22.356Z,2.88
2018-12-26T02:53:18.376Z,2.95
2018-12-26T02:58:15.087Z,2.95
2018-12-26T03:03:11.069Z,2.89
2018-12-26T03:08:07.089Z,2.92
2018-12-26T03:13:03.103Z,2.90
2018-12-26T03:17:59.150Z,2.91
2018-12-26T03:22:55.139Z,3.00
2018-12-26T03:28:11.633Z,3.02
2018-12-26T03:33:07.631Z,3.05
2018-12-26T03:38:03.649Z,3.01
2018-12-26T03:43:41.298Z,3.03
2018-12-26T03:48:37.438Z,3.08
2018-12-26T03:53:33.571Z,3.08
2018-12-26T03:58:30.395Z,3.08
2018-12-26T04:03:26.476Z,3.03
2018-12-26T04:08:22.577Z,2.96
2018-12-26T04:13:18.595Z,3.05
2018-12-26T04:18:14.628Z,3.13
2018-12-26T04:23:10.642Z,3.03
2018-12-26T04:28:27.056Z,2.96
2018-12-26T04:33:23.055Z,3.11
2018-12-26T04:38:19.062Z,2.99
2018-12-26T04:43:15.079Z,3.11
2018-12-26T04:48:11.100Z,3.06
2018-12-26T04:53:07.192Z,3.06
2018-12-26T04:58:23.669Z,3.12
2018-12-26T05:03:19.646Z,2.99
2018-12-26T05:08:15.665Z,2.96
2018-12-26T05:13:11.683Z,2.92
2018-12-26T05:18:07.690Z,2.88
2018-12-26T05:23:03.809Z,2.87
2018-12-26T05:28:41.774Z,2.81
2018-12-26T05:33:37.785Z,2.83
2018-12-26T05:38:33.812Z,2.97
2018-12-26T05:43:29.996Z,2.96
2018-12-26T05:48:26.490Z,2.99
2018-12-26T05:58:38.290Z,2.99
2018-12-26T06:03:34.343Z,2.80
2018-12-26T06:08:30.378Z,2.80
2018-12-26T06:13:26.392Z,2.69
2018-12-26T06:18:22.401Z,2.60
2018-12-26T06:23:18.428Z,2.61
2018-12-26T06:28:15.115Z,2.54
2018-12-26T06:33:11.093Z,2.51
2018-12-26T06:38:07.107Z,2.50
2018-12-26T06:43:03.136Z,2.64
2018-12-26T06:47:59.195Z,2.63
2018-12-26T06:52:55.218Z,2.51
2018-12-26T07:03:07.347Z,2.43
2018-12-26T07:08:03.371Z,2.47
2018-12-26T07:12:59.407Z,2.37
2018-12-26T07:17:55.430Z,2.48
2018-12-26T07:22:51.446Z,2.46
2018-12-26T07:27:50.658Z,2.67
2018-12-26T07:32:46.809Z,2.56
2018-12-26T07:37:42.907Z,2.61
2018-12-26T07:42:38.998Z,2.66
2018-12-26T07:47:35.100Z,2.58
2018-12-26T07:52:31.115Z,2.50
2018-12-26T07:57:27.769Z,2.73
2018-12-26T08:02:23.825Z,2.69
2018-12-26T08:07:19.999Z,2.86
2018-12-26T08:12:15.995Z,2.71
2018-12-26T08:17:12.556Z,2.77
2018-12-26T08:22:08.671Z,2.77
2018-12-26T08:27:12.108Z,2.88
2018-12-26T08:32:08.129Z,3.01
2018-12-26T08:37:04.261Z,2.95
2018-12-26T08:42:20.946Z,2.94
2018-12-26T08:47:17.102Z,3.02
2018-12-26T08:52:13.167Z,3.06
2018-12-26T08:57:09.195Z,3.12
2018-12-26T09:02:05.225Z,3.10
2018-12-26T09:07:01.516Z,3.35
2018-12-26T09:11:57.633Z,3.22
2018-12-26T09:16:53.873Z,3.00
2018-12-26T09:21:50.008Z,3.20
2018-12-26T09:26:47.429Z,3.08
2018-12-26T09:31:44.217Z,3.09
2018-12-26T09:37:22.291Z,3.23
2018-12-26T09:42:18.384Z,3.21
2018-12-26T09:47:14.538Z,3.22
2018-12-26T09:52:10.583Z,3.10
2018-12-26T09:57:06.642Z,3.21
2018-12-26T10:02:02.762Z,3.24
2018-12-26T10:06:59.718Z,3.23
2018-12-26T10:11:55.814Z,3.23
2018-12-26T10:17:33.509Z,3.22
2018-12-26T10:22:29.595Z,3.19
2018-12-26T10:27:27.513Z,3.27
2018-12-26T10:32:23.660Z,3.22
2018-12-26T10:37:19.757Z,3.15
2018-12-26T10:42:15.788Z,3.12
2018-12-26T10:47:11.957Z,3.27
2018-12-26T10:52:07.981Z,3.31
2018-12-26T10:57:04.025Z,3.24
2018-12-26T11:02:00.118Z,3.22
2018-12-26T11:12:12.468Z,3.27
2018-12-26T11:17:50.205Z,3.28
2018-12-26T11:23:28.331Z,3.24
2018-12-26T11:28:25.865Z,3.18
2018-12-26T11:33:22.053Z,3.29
2018-12-26T11:38:18.317Z,3.29
2018-12-26T11:43:14.842Z,3.33
2018-12-26T11:48:11.273Z,3.19
2018-12-26T11:53:07.553Z,3.29
2018-12-26T11:58:24.019Z,3.41
2018-12-26T12:03:39.900Z,3.47
2018-12-26T12:08:35.982Z,3.32
2018-12-26T12:13:32.248Z,3.41
2018-12-26T12:18:28.665Z,3.38
2018-12-26T12:23:24.860Z,3.28
2018-12-26T12:28:41.323Z,3.34
2018-12-26T12:33:37.374Z,3.50
2018-12-26T12:38:33.583Z,3.53
2018-12-26T12:43:51.625Z,3.37
2018-12-26T12:48:47.862Z,3.43
2018-12-26T12:53:44.136Z,3.32
2018-12-26T12:58:41.031Z,3.21
2018-12-26T13:03:37.148Z,3.36
2018-12-26T13:08:33.268Z,3.62
2018-12-26T13:13:29.320Z,3.63
2018-12-26T13:18:25.848Z,3.56
2018-12-26T13:23:22.287Z,3.64
2018-12-26T13:28:19.242Z,3.57
2018-12-26T13:33:17.200Z,3.62
2018-12-26T13:38:13.548Z,3.35
2018-12-26T13:43:09.611Z,3.57
2018-12-26T13:48:05.716Z,3.66
2018-12-26T13:53:01.781Z,3.66
2018-12-26T14:03:22.288Z,3.67
2018-12-26T14:08:18.361Z,3.60
2018-12-26T14:13:14.452Z,3.51
2018-12-26T14:18:10.484Z,3.50
2018-12-26T14:23:06.583Z,3.53
2018-12-26T14:28:03.272Z,3.63
2018-12-26T14:32:59.286Z,3.67
2018-12-26T14:37:55.314Z,3.67
2018-12-26T14:42:51.359Z,3.57
2018-12-26T14:47:47.385Z,3.61
2018-12-26T14:52:43.423Z,3.53
2018-12-26T15:02:42.096Z,3.61
2018-12-26T15:07:38.243Z,3.72
2018-12-26T15:12:34.232Z,3.76
2018-12-26T15:17:30.266Z,3.76
2018-12-26T15:22:26.294Z,3.70
2018-12-26T15:27:22.402Z,3.98
2018-12-26T15:32:38.345Z,3.92
2018-12-26T15:37:34.395Z,3.78
2018-12-26T15:42:30.406Z,3.76
2018-12-26T15:47:26.592Z,3.85
2018-12-26T15:52:22.702Z,3.90
2018-12-26T15:57:18.818Z,3.98
2018-12-26T16:02:14.831Z,3.84
2018-12-26T16:07:10.850Z,3.97
2018-12-26T16:12:06.869Z,4.07
2018-12-26T16:17:03.010Z,3.65
2018-12-26T16:21:59.138Z,3.85
2018-12-26T16:26:55.174Z,3.90
2018-12-26T16:31:51.215Z,3.91
2018-12-26T16:36:47.246Z,4.07
2018-12-26T16:41:43.281Z,4.12
2018-12-26T16:46:39.324Z,3.98
2018-12-26T16:51:35.364Z,4.08
2018-12-26T16:56:31.394Z,4.23
2018-12-26T17:01:27.412Z,4.15
2018-12-26T17:06:23.485Z,4.12
2018-12-26T17:11:19.505Z,4.03
2018-12-26T17:16:15.542Z,3.94
2018-12-26T17:21:11.603Z,4.01
2018-12-26T17:26:07.747Z,4.08
2018-12-26T17:31:04.203Z,3.83
2018-12-26T17:36:01.685Z,4.02
2018-12-26T17:40:57.813Z,3.97
2018-12-26T17:45:53.842Z,3.88
2018-12-26T17:50:49.955Z,3.88
2018-12-26T17:56:27.624Z,3.94
2018-12-26T18:02:05.411Z,3.93
2018-12-26T18:07:01.452Z,4.01
2018-12-26T18:12:11.234Z,4.01
2018-12-26T18:17:15.588Z,4.13
2018-12-26T18:22:11.759Z,4.01
2018-12-26T18:27:07.816Z,4.02
2018-12-26T18:32:03.841Z,4.03
2018-12-26T18:36:59.860Z,3.91
2018-12-26T18:41:55.873Z,4.02
2018-12-26T18:46:51.941Z,4.23
2018-12-26T18:51:47.967Z,4.22
2018-12-26T18:56:43.982Z,4.13
2018-12-26T19:01:40.014Z,4.33
2018-12-26T19:06:36.047Z,4.48
2018-12-26T19:11:32.058Z,4.38
2018-12-26T19:16:28.042Z,4.27
2018-12-26T19:21:24.062Z,4.51
2018-12-26T19:26:20.085Z,4.35
2018-12-26T19:31:16.100Z,4.42
2018-12-26T19:36:12.122Z,4.44
2018-12-26T19:41:08.134Z,4.37
2018-12-26T19:46:04.179Z,4.46
2018-12-26T19:51:00.194Z,4.63
2018-12-26T19:55:56.226Z,4.60
2018-12-26T20:00:52.241Z,4.57
2018-12-26T20:05:48.359Z,4.50
2018-12-26T20:10:44.380Z,4.30
2018-12-26T20:15:40.762Z,4.49
2018-12-26T20:20:37.094Z,4.74
2018-12-26T20:25:33.442Z,4.51
2018-12-26T20:30:29.806Z,4.36
2018-12-26T20:35:26.207Z,4.34
2018-12-26T20:40:44.885Z,4.41
2018-12-26T20:50:46.342Z,4.43
2018-12-26T20:55:45.703Z,4.68
2018-12-26T21:01:02.413Z,4.46
2018-12-26T21:05:59.689Z,4.63
2018-12-26T21:10:56.787Z,4.71
2018-12-26T21:15:53.775Z,4.52
2018-12-26T21:20:50.769Z,4.31
2018-12-26T21:25:47.954Z,4.51
2018-12-26T21:30:48.414Z,4.53
2018-12-26T21:35:45.536Z,4.63
2018-12-26T21:40:44.282Z,4.79
2018-12-26T21:46:22.553Z,4.66
2018-12-26T21:51:39.496Z,4.43
2018-12-26T21:56:36.388Z,4.51
2018-12-26T22:01:33.328Z,4.56
2018-12-26T22:06:30.357Z,4.77
2018-12-26T22:16:51.469Z,4.41
2018-12-26T22:21:48.521Z,4.48
2018-12-26T22:26:45.620Z,4.40
2018-12-26T22:32:02.229Z,4.46
2018-12-26T22:36:59.364Z,4.51
2018-12-26T22:41:55.816Z,4.30
2018-12-26T22:46:51.982Z,4.04
2018-12-26T22:51:48.447Z,3.93
2018-12-26T22:56:44.816Z,3.96
2018-12-26T23:01:41.058Z,4.45
2018-12-26T23:06:37.276Z,3.85
2018-12-26T23:11:33.469Z,3.65
2018-12-26T23:16:29.763Z,3.64
2018-12-26T23:21:25.931Z,3.63
2018-12-26T23:26:22.015Z,3.64
2018-12-26T23:31:18.335Z,3.55
2018-12-26T23:36:14.683Z,3.48
2018-12-26T23:41:10.886Z,3.44
2018-12-26T23:46:07.095Z,3.56
2018-12-26T23:51:03.366Z,3.38
2018-12-26T23:55:59.767Z,3.35
